sensor_id;sensor_type;location;lat;lon;timestamp;P1;durP1;ratioP1;P2;durP2;ratioP2
9997;SDS011;5038;53.064;8.624;2024-03-08T00:00:38;23.80;;;20.50;;
9997;SDS011;5038;53.064;8.624;2024-03-08T00:03:08;26.60;;;20.73;;
9997;SDS011;5038;53.064;8.624;2024-03-08T00:05:37;31.13;;;21.47;;
9997;SDS011;5038;53.064;8.624;2024-03-08T00:08:06;30.17;;;21.93;;
9997;SDS011;5038;53.064;8.624;2024-03-08T00:10:36;26.10;;;20.73;;
9997;SDS011;5038;53.064;8.624;2024-03-08T00:13:06;21.93;;;19.43;;
9997;SDS011;5038;53.064;8.624;2024-03-08T00:15:34;27.00;;;20.73;;
9997;SDS011;5038;53.064;8.624;2024-03-08T00:18:03;23.13;;;20.60;;
9997;SDS011;5038;53.064;8.624;2024-03-08T00:20:33;23.40;;;19.90;;
9997;SDS011;5038;53.064;8.624;2024-03-08T00:23:02;29.13;;;22.50;;
9997;SDS011;5038;53.064;8.624;2024-03-08T00:25:30;26.10;;;21.30;;
9997;SDS011;5038;53.064;8.624;2024-03-08T00:28:00;26.43;;;22.00;;
9997;SDS011;5038;53.064;8.624;2024-03-08T00:30:29;25.97;;;21.13;;
9997;SDS011;5038;53.064;8.624;2024-03-08T00:32:58;24.27;;;20.27;;
9997;SDS011;5038;53.064;8.624;2024-03-08T00:35:27;26.10;;;20.80;;
9997;SDS011;5038;53.064;8.624;2024-03-08T00:37:58;25.70;;;19.40;;
9997;SDS011;5038;53.064;8.624;2024-03-08T00:40:26;26.60;;;20.77;;
9997;SDS011;5038;53.064;8.624;2024-03-08T00:42:55;24.60;;;21.97;;
9997;SDS011;5038;53.064;8.624;2024-03-08T00:45:23;25.80;;;19.40;;
9997;SDS011;5038;53.064;8.624;2024-03-08T00:47:52;27.07;;;19.40;;
9997;SDS011;5038;53.064;8.624;2024-03-08T00:50:21;27.03;;;19.77;;
9997;SDS011;5038;53.064;8.624;2024-03-08T00:52:50;24.47;;;19.27;;
9997;SDS011;5038;53.064;8.624;2024-03-08T00:55:20;24.93;;;20.60;;
9997;SDS011;5038;53.064;8.624;2024-03-08T00:57:49;24.47;;;19.23;;
9997;SDS011;5038;53.064;8.624;2024-03-08T01:00:18;24.83;;;20.20;;
9997;SDS011;5038;53.064;8.624;2024-03-08T01:02:47;23.47;;;19.80;;
9997;SDS011;5038;53.064;8.624;2024-03-08T01:05:16;31.03;;;21.47;;
9997;SDS011;5038;53.064;8.624;2024-03-08T01:07:45;25.10;;;21.07;;
9997;SDS011;5038;53.064;8.624;2024-03-08T01:10:14;23.03;;;18.83;;
9997;SDS011;5038;53.064;8.624;2024-03-08T01:12:44;24.53;;;20.50;;
9997;SDS011;5038;53.064;8.624;2024-03-08T01:15:12;27.87;;;22.10;;
9997;SDS011;5038;53.064;8.624;2024-03-08T01:17:41;25.73;;;19.07;;
9997;SDS011;5038;53.064;8.624;2024-03-08T01:20:10;25.90;;;19.17;;
9997;SDS011;5038;53.064;8.624;2024-03-08T01:22:40;27.20;;;21.00;;
9997;SDS011;5038;53.064;8.624;2024-03-08T01:25:08;27.10;;;21.50;;
9997;SDS011;5038;53.064;8.624;2024-03-08T01:27:37;25.10;;;18.47;;
9997;SDS011;5038;53.064;8.624;2024-03-08T01:30:07;25.00;;;19.40;;
9997;SDS011;5038;53.064;8.624;2024-03-08T01:32:37;25.43;;;20.20;;
9997;SDS011;5038;53.064;8.624;2024-03-08T01:35:06;27.90;;;20.40;;
9997;SDS011;5038;53.064;8.624;2024-03-08T01:37:36;24.90;;;21.00;;
9997;SDS011;5038;53.064;8.624;2024-03-08T01:40:05;25.40;;;19.70;;
9997;SDS011;5038;53.064;8.624;2024-03-08T01:42:35;21.20;;;18.50;;
9997;SDS011;5038;53.064;8.624;2024-03-08T01:45:04;25.30;;;21.10;;
9997;SDS011;5038;53.064;8.624;2024-03-08T01:47:35;26.67;;;21.87;;
9997;SDS011;5038;53.064;8.624;2024-03-08T01:50:05;23.60;;;20.43;;
9997;SDS011;5038;53.064;8.624;2024-03-08T01:52:35;25.70;;;20.57;;
9997;SDS011;5038;53.064;8.624;2024-03-08T01:55:05;24.73;;;19.33;;
9997;SDS011;5038;53.064;8.624;2024-03-08T01:57:34;24.80;;;19.83;;
9997;SDS011;5038;53.064;8.624;2024-03-08T02:00:07;29.67;;;20.23;;
9997;SDS011;5038;53.064;8.624;2024-03-08T02:02:38;24.57;;;19.80;;
9997;SDS011;5038;53.064;8.624;2024-03-08T02:05:09;27.40;;;20.17;;
9997;SDS011;5038;53.064;8.624;2024-03-08T02:07:40;26.43;;;21.20;;
9997;SDS011;5038;53.064;8.624;2024-03-08T02:10:10;26.90;;;19.53;;
9997;SDS011;5038;53.064;8.624;2024-03-08T02:12:39;25.60;;;22.30;;
9997;SDS011;5038;53.064;8.624;2024-03-08T02:15:09;26.33;;;20.50;;
9997;SDS011;5038;53.064;8.624;2024-03-08T02:17:38;25.90;;;20.53;;
9997;SDS011;5038;53.064;8.624;2024-03-08T02:20:07;25.57;;;20.80;;
9997;SDS011;5038;53.064;8.624;2024-03-08T02:22:38;25.57;;;21.27;;
9997;SDS011;5038;53.064;8.624;2024-03-08T02:25:07;22.90;;;19.07;;
9997;SDS011;5038;53.064;8.624;2024-03-08T02:27:37;27.33;;;20.53;;
9997;SDS011;5038;53.064;8.624;2024-03-08T02:30:06;28.03;;;21.20;;
9997;SDS011;5038;53.064;8.624;2024-03-08T02:32:36;26.70;;;20.60;;
9997;SDS011;5038;53.064;8.624;2024-03-08T02:35:05;25.37;;;19.60;;
9997;SDS011;5038;53.064;8.624;2024-03-08T02:37:34;27.30;;;20.83;;
9997;SDS011;5038;53.064;8.624;2024-03-08T02:40:04;30.37;;;21.50;;
9997;SDS011;5038;53.064;8.624;2024-03-08T02:42:34;28.67;;;20.00;;
9997;SDS011;5038;53.064;8.624;2024-03-08T02:45:02;27.00;;;20.10;;
9997;SDS011;5038;53.064;8.624;2024-03-08T02:47:32;26.10;;;18.90;;
9997;SDS011;5038;53.064;8.624;2024-03-08T02:50:01;23.90;;;19.67;;
9997;SDS011;5038;53.064;8.624;2024-03-08T02:52:30;26.17;;;20.07;;
9997;SDS011;5038;53.064;8.624;2024-03-08T02:55:00;25.00;;;20.47;;
9997;SDS011;5038;53.064;8.624;2024-03-08T02:57:30;25.53;;;20.53;;
9997;SDS011;5038;53.064;8.624;2024-03-08T02:59:59;26.00;;;19.30;;
9997;SDS011;5038;53.064;8.624;2024-03-08T03:02:28;23.97;;;20.03;;
9997;SDS011;5038;53.064;8.624;2024-03-08T03:04:56;27.37;;;20.73;;
9997;SDS011;5038;53.064;8.624;2024-03-08T03:07:25;24.33;;;19.50;;
9997;SDS011;5038;53.064;8.624;2024-03-08T03:09:54;24.70;;;19.60;;
9997;SDS011;5038;53.064;8.624;2024-03-08T03:12:22;28.77;;;20.27;;
9997;SDS011;5038;53.064;8.624;2024-03-08T03:14:52;24.37;;;19.07;;
9997;SDS011;5038;53.064;8.624;2024-03-08T03:17:21;24.47;;;19.20;;
9997;SDS011;5038;53.064;8.624;2024-03-08T03:19:49;25.70;;;18.53;;
9997;SDS011;5038;53.064;8.624;2024-03-08T03:22:19;25.40;;;18.90;;
9997;SDS011;5038;53.064;8.624;2024-03-08T03:24:47;27.30;;;20.50;;
9997;SDS011;5038;53.064;8.624;2024-03-08T03:27:18;23.47;;;20.07;;
9997;SDS011;5038;53.064;8.624;2024-03-08T03:29:46;27.83;;;20.43;;
9997;SDS011;5038;53.064;8.624;2024-03-08T03:32:17;26.63;;;19.87;;
9997;SDS011;5038;53.064;8.624;2024-03-08T03:34:46;25.70;;;20.40;;
9997;SDS011;5038;53.064;8.624;2024-03-08T03:37:15;26.33;;;19.93;;
9997;SDS011;5038;53.064;8.624;2024-03-08T03:39:44;25.57;;;20.57;;
9997;SDS011;5038;53.064;8.624;2024-03-08T03:42:17;26.60;;;22.57;;
9997;SDS011;5038;53.064;8.624;2024-03-08T03:44:47;30.13;;;21.27;;
9997;SDS011;5038;53.064;8.624;2024-03-08T03:47:18;27.30;;;21.53;;
9997;SDS011;5038;53.064;8.624;2024-03-08T03:49:46;26.47;;;20.63;;
9997;SDS011;5038;53.064;8.624;2024-03-08T03:52:14;25.93;;;19.10;;
9997;SDS011;5038;53.064;8.624;2024-03-08T03:54:43;21.87;;;16.37;;
9997;SDS011;5038;53.064;8.624;2024-03-08T03:57:13;27.30;;;21.60;;
9997;SDS011;5038;53.064;8.624;2024-03-08T03:59:42;24.37;;;20.10;;
9997;SDS011;5038;53.064;8.624;2024-03-08T04:02:10;25.87;;;20.43;;
9997;SDS011;5038;53.064;8.624;2024-03-08T04:04:40;25.90;;;20.60;;
9997;SDS011;5038;53.064;8.624;2024-03-08T04:07:08;25.93;;;21.30;;
9997;SDS011;5038;53.064;8.624;2024-03-08T04:09:37;27.47;;;22.17;;
9997;SDS011;5038;53.064;8.624;2024-03-08T04:12:06;26.63;;;20.33;;
9997;SDS011;5038;53.064;8.624;2024-03-08T04:14:38;27.40;;;21.93;;
9997;SDS011;5038;53.064;8.624;2024-03-08T04:17:09;25.00;;;21.03;;
9997;SDS011;5038;53.064;8.624;2024-03-08T04:19:39;25.47;;;21.13;;
9997;SDS011;5038;53.064;8.624;2024-03-08T04:22:08;27.10;;;21.77;;
9997;SDS011;5038;53.064;8.624;2024-03-08T04:24:37;28.10;;;21.30;;
9997;SDS011;5038;53.064;8.624;2024-03-08T04:27:06;26.53;;;21.67;;
9997;SDS011;5038;53.064;8.624;2024-03-08T04:29:35;33.07;;;22.87;;
9997;SDS011;5038;53.064;8.624;2024-03-08T04:32:04;28.73;;;22.13;;
9997;SDS011;5038;53.064;8.624;2024-03-08T04:34:35;29.23;;;20.87;;
9997;SDS011;5038;53.064;8.624;2024-03-08T04:37:05;29.70;;;21.00;;
9997;SDS011;5038;53.064;8.624;2024-03-08T04:39:33;28.53;;;22.90;;
9997;SDS011;5038;53.064;8.624;2024-03-08T04:42:02;26.13;;;19.70;;
9997;SDS011;5038;53.064;8.624;2024-03-08T04:44:33;27.63;;;21.37;;
9997;SDS011;5038;53.064;8.624;2024-03-08T04:47:01;29.97;;;23.37;;
9997;SDS011;5038;53.064;8.624;2024-03-08T04:49:30;30.60;;;21.43;;
9997;SDS011;5038;53.064;8.624;2024-03-08T04:52:01;27.87;;;21.47;;
9997;SDS011;5038;53.064;8.624;2024-03-08T04:54:32;28.33;;;20.90;;
9997;SDS011;5038;53.064;8.624;2024-03-08T04:57:01;30.67;;;23.43;;
9997;SDS011;5038;53.064;8.624;2024-03-08T04:59:34;29.50;;;22.63;;
9997;SDS011;5038;53.064;8.624;2024-03-08T05:02:03;29.50;;;23.03;;
9997;SDS011;5038;53.064;8.624;2024-03-08T05:04:31;28.70;;;23.43;;
9997;SDS011;5038;53.064;8.624;2024-03-08T05:07:00;27.77;;;22.13;;
9997;SDS011;5038;53.064;8.624;2024-03-08T05:09:29;29.70;;;23.80;;
9997;SDS011;5038;53.064;8.624;2024-03-08T05:12:00;29.30;;;22.50;;
9997;SDS011;5038;53.064;8.624;2024-03-08T05:14:28;30.87;;;22.90;;
9997;SDS011;5038;53.064;8.624;2024-03-08T05:16:58;31.30;;;24.70;;
9997;SDS011;5038;53.064;8.624;2024-03-08T05:19:27;32.50;;;24.00;;
9997;SDS011;5038;53.064;8.624;2024-03-08T05:22:00;31.50;;;24.63;;
9997;SDS011;5038;53.064;8.624;2024-03-08T05:24:30;28.20;;;20.93;;
9997;SDS011;5038;53.064;8.624;2024-03-08T05:27:00;30.10;;;23.53;;
9997;SDS011;5038;53.064;8.624;2024-03-08T05:29:29;29.90;;;22.40;;
9997;SDS011;5038;53.064;8.624;2024-03-08T05:31:58;31.90;;;22.77;;
9997;SDS011;5038;53.064;8.624;2024-03-08T05:34:26;33.47;;;24.23;;
9997;SDS011;5038;53.064;8.624;2024-03-08T05:36:56;30.47;;;24.07;;
9997;SDS011;5038;53.064;8.624;2024-03-08T05:39:25;33.37;;;23.97;;
9997;SDS011;5038;53.064;8.624;2024-03-08T05:41:53;31.47;;;24.93;;
9997;SDS011;5038;53.064;8.624;2024-03-08T05:44:24;35.63;;;26.43;;
9997;SDS011;5038;53.064;8.624;2024-03-08T05:46:55;34.83;;;26.47;;
9997;SDS011;5038;53.064;8.624;2024-03-08T05:49:24;30.30;;;24.37;;
9997;SDS011;5038;53.064;8.624;2024-03-08T05:51:52;32.30;;;24.10;;
9997;SDS011;5038;53.064;8.624;2024-03-08T05:54:21;32.60;;;25.30;;
9997;SDS011;5038;53.064;8.624;2024-03-08T05:56:52;31.87;;;23.00;;
9997;SDS011;5038;53.064;8.624;2024-03-08T05:59:21;33.73;;;23.03;;
9997;SDS011;5038;53.064;8.624;2024-03-08T06:01:51;33.23;;;24.13;;
9997;SDS011;5038;53.064;8.624;2024-03-08T06:04:21;33.70;;;24.80;;
9997;SDS011;5038;53.064;8.624;2024-03-08T06:06:49;27.83;;;21.90;;
9997;SDS011;5038;53.064;8.624;2024-03-08T06:09:18;34.33;;;24.50;;
9997;SDS011;5038;53.064;8.624;2024-03-08T06:11:51;36.63;;;24.60;;
9997;SDS011;5038;53.064;8.624;2024-03-08T06:14:21;32.83;;;24.83;;
9997;SDS011;5038;53.064;8.624;2024-03-08T06:16:51;32.37;;;24.70;;
9997;SDS011;5038;53.064;8.624;2024-03-08T06:19:20;33.90;;;26.23;;
9997;SDS011;5038;53.064;8.624;2024-03-08T06:21:49;33.93;;;25.40;;
9997;SDS011;5038;53.064;8.624;2024-03-08T06:24:17;31.97;;;25.27;;
9997;SDS011;5038;53.064;8.624;2024-03-08T06:26:46;30.47;;;22.53;;
9997;SDS011;5038;53.064;8.624;2024-03-08T06:29:13;34.10;;;27.57;;
9997;SDS011;5038;53.064;8.624;2024-03-08T06:31:42;34.77;;;25.63;;
9997;SDS011;5038;53.064;8.624;2024-03-08T06:34:12;34.50;;;24.90;;
9997;SDS011;5038;53.064;8.624;2024-03-08T06:36:42;32.33;;;26.60;;
9997;SDS011;5038;53.064;8.624;2024-03-08T06:39:10;30.57;;;25.00;;
9997;SDS011;5038;53.064;8.624;2024-03-08T06:41:39;35.33;;;26.40;;
9997;SDS011;5038;53.064;8.624;2024-03-08T06:44:07;29.60;;;24.10;;
9997;SDS011;5038;53.064;8.624;2024-03-08T06:46:36;34.00;;;26.00;;
9997;SDS011;5038;53.064;8.624;2024-03-08T06:49:05;33.63;;;25.83;;
9997;SDS011;5038;53.064;8.624;2024-03-08T06:51:35;32.13;;;25.53;;
9997;SDS011;5038;53.064;8.624;2024-03-08T06:54:04;33.27;;;26.30;;
9997;SDS011;5038;53.064;8.624;2024-03-08T06:56:35;34.50;;;25.00;;
9997;SDS011;5038;53.064;8.624;2024-03-08T06:59:05;37.87;;;28.27;;
9997;SDS011;5038;53.064;8.624;2024-03-08T07:01:39;32.17;;;25.30;;
9997;SDS011;5038;53.064;8.624;2024-03-08T07:04:08;33.27;;;25.93;;
9997;SDS011;5038;53.064;8.624;2024-03-08T07:06:39;36.23;;;27.50;;
9997;SDS011;5038;53.064;8.624;2024-03-08T07:09:08;32.50;;;27.43;;
9997;SDS011;5038;53.064;8.624;2024-03-08T07:11:38;31.30;;;25.07;;
9997;SDS011;5038;53.064;8.624;2024-03-08T07:14:10;32.20;;;25.30;;
9997;SDS011;5038;53.064;8.624;2024-03-08T07:16:42;31.70;;;26.40;;
9997;SDS011;5038;53.064;8.624;2024-03-08T07:19:13;33.23;;;26.20;;
9997;SDS011;5038;53.064;8.624;2024-03-08T07:21:43;30.37;;;24.83;;
9997;SDS011;5038;53.064;8.624;2024-03-08T07:24:11;37.37;;;27.87;;
9997;SDS011;5038;53.064;8.624;2024-03-08T07:27:04;34.07;;;25.43;;
9997;SDS011;5038;53.064;8.624;2024-03-08T07:29:33;34.20;;;26.97;;
9997;SDS011;5038;53.064;8.624;2024-03-08T07:32:02;33.40;;;28.50;;
9997;SDS011;5038;53.064;8.624;2024-03-08T07:34:42;34.60;;;24.27;;
9997;SDS011;5038;53.064;8.624;2024-03-08T07:37:12;29.17;;;24.93;;
9997;SDS011;5038;53.064;8.624;2024-03-08T07:39:41;32.10;;;26.37;;
9997;SDS011;5038;53.064;8.624;2024-03-08T07:42:12;28.97;;;24.80;;
9997;SDS011;5038;53.064;8.624;2024-03-08T07:44:41;34.00;;;25.70;;
9997;SDS011;5038;53.064;8.624;2024-03-08T07:47:09;33.80;;;27.40;;
9997;SDS011;5038;53.064;8.624;2024-03-08T07:49:40;31.20;;;25.27;;
9997;SDS011;5038;53.064;8.624;2024-03-08T07:52:10;28.87;;;24.10;;
9997;SDS011;5038;53.064;8.624;2024-03-08T07:54:43;31.33;;;26.80;;
9997;SDS011;5038;53.064;8.624;2024-03-08T07:57:15;28.80;;;25.60;;
9997;SDS011;5038;53.064;8.624;2024-03-08T07:59:44;29.53;;;26.17;;
9997;SDS011;5038;53.064;8.624;2024-03-08T08:02:13;30.27;;;27.07;;
9997;SDS011;5038;53.064;8.624;2024-03-08T08:04:43;29.23;;;24.97;;
9997;SDS011;5038;53.064;8.624;2024-03-08T08:07:13;30.33;;;26.50;;
9997;SDS011;5038;53.064;8.624;2024-03-08T08:09:45;31.10;;;25.30;;
9997;SDS011;5038;53.064;8.624;2024-03-08T08:12:13;27.67;;;24.70;;
9997;SDS011;5038;53.064;8.624;2024-03-08T08:14:42;29.30;;;26.10;;
9997;SDS011;5038;53.064;8.624;2024-03-08T08:17:11;27.53;;;24.63;;
9997;SDS011;5038;53.064;8.624;2024-03-08T08:19:40;29.53;;;26.00;;
9997;SDS011;5038;53.064;8.624;2024-03-08T08:22:09;30.13;;;27.03;;
9997;SDS011;5038;53.064;8.624;2024-03-08T08:24:41;28.47;;;25.57;;
9997;SDS011;5038;53.064;8.624;2024-03-08T08:27:13;29.10;;;26.17;;
9997;SDS011;5038;53.064;8.624;2024-03-08T08:29:43;30.43;;;27.27;;
9997;SDS011;5038;53.064;8.624;2024-03-08T08:32:12;29.60;;;26.50;;
9997;SDS011;5038;53.064;8.624;2024-03-08T08:34:41;25.23;;;22.70;;
9997;SDS011;5038;53.064;8.624;2024-03-08T08:37:12;36.30;;;30.63;;
9997;SDS011;5038;53.064;8.624;2024-03-08T08:39:42;30.47;;;27.37;;
9997;SDS011;5038;53.064;8.624;2024-03-08T08:42:17;29.17;;;26.07;;
9997;SDS011;5038;53.064;8.624;2024-03-08T08:44:45;28.83;;;25.90;;
9997;SDS011;5038;53.064;8.624;2024-03-08T08:47:18;27.17;;;24.37;;
9997;SDS011;5038;53.064;8.624;2024-03-08T08:49:47;29.03;;;26.03;;
9997;SDS011;5038;53.064;8.624;2024-03-08T08:52:17;29.00;;;26.17;;
9997;SDS011;5038;53.064;8.624;2024-03-08T08:54:46;29.33;;;26.40;;
9997;SDS011;5038;53.064;8.624;2024-03-08T08:57:19;29.27;;;26.23;;
9997;SDS011;5038;53.064;8.624;2024-03-08T08:59:47;27.07;;;24.50;;
9997;SDS011;5038;53.064;8.624;2024-03-08T09:02:16;27.47;;;24.77;;
9997;SDS011;5038;53.064;8.624;2024-03-08T09:04:47;31.40;;;28.50;;
9997;SDS011;5038;53.064;8.624;2024-03-08T09:07:17;29.80;;;27.00;;
9997;SDS011;5038;53.064;8.624;2024-03-08T09:09:47;32.30;;;29.27;;
9997;SDS011;5038;53.064;8.624;2024-03-08T09:12:15;28.57;;;25.87;;
9997;SDS011;5038;53.064;8.624;2024-03-08T09:14:45;28.47;;;25.67;;
9997;SDS011;5038;53.064;8.624;2024-03-08T09:17:16;30.10;;;27.10;;
9997;SDS011;5038;53.064;8.624;2024-03-08T09:19:48;28.83;;;25.97;;
9997;SDS011;5038;53.064;8.624;2024-03-08T09:22:20;29.27;;;26.40;;
9997;SDS011;5038;53.064;8.624;2024-03-08T09:24:49;31.80;;;28.70;;
9997;SDS011;5038;53.064;8.624;2024-03-08T09:27:17;30.20;;;27.33;;
9997;SDS011;5038;53.064;8.624;2024-03-08T09:29:47;29.63;;;26.73;;
9997;SDS011;5038;53.064;8.624;2024-03-08T09:32:17;30.90;;;27.60;;
9997;SDS011;5038;53.064;8.624;2024-03-08T09:34:46;29.50;;;26.77;;
9997;SDS011;5038;53.064;8.624;2024-03-08T09:37:14;28.60;;;25.87;;
9997;SDS011;5038;53.064;8.624;2024-03-08T09:39:45;28.43;;;25.53;;
9997;SDS011;5038;53.064;8.624;2024-03-08T09:42:15;30.70;;;27.50;;
9997;SDS011;5038;53.064;8.624;2024-03-08T09:44:44;30.97;;;28.00;;
9997;SDS011;5038;53.064;8.624;2024-03-08T09:47:16;31.43;;;28.50;;
9997;SDS011;5038;53.064;8.624;2024-03-08T09:49:46;29.90;;;27.10;;
9997;SDS011;5038;53.064;8.624;2024-03-08T09:52:17;30.17;;;27.30;;
9997;SDS011;5038;53.064;8.624;2024-03-08T09:54:47;33.53;;;29.17;;
9997;SDS011;5038;53.064;8.624;2024-03-08T09:57:18;29.27;;;26.40;;
9997;SDS011;5038;53.064;8.624;2024-03-08T09:59:48;31.77;;;28.73;;
9997;SDS011;5038;53.064;8.624;2024-03-08T10:02:18;31.67;;;28.60;;
9997;SDS011;5038;53.064;8.624;2024-03-08T10:04:49;30.67;;;27.77;;
9997;SDS011;5038;53.064;8.624;2024-03-08T10:07:20;30.60;;;27.60;;
9997;SDS011;5038;53.064;8.624;2024-03-08T10:09:51;30.53;;;27.50;;
9997;SDS011;5038;53.064;8.624;2024-03-08T10:12:20;31.67;;;28.57;;
9997;SDS011;5038;53.064;8.624;2024-03-08T10:14:48;29.57;;;26.70;;
9997;SDS011;5038;53.064;8.624;2024-03-08T10:17:18;32.77;;;29.67;;
9997;SDS011;5038;53.064;8.624;2024-03-08T10:19:50;31.77;;;28.70;;
9997;SDS011;5038;53.064;8.624;2024-03-08T10:22:20;30.60;;;27.63;;
9997;SDS011;5038;53.064;8.624;2024-03-08T10:24:48;32.20;;;29.10;;
9997;SDS011;5038;53.064;8.624;2024-03-08T10:27:19;32.80;;;29.40;;
9997;SDS011;5038;53.064;8.624;2024-03-08T10:29:48;30.67;;;27.57;;
9997;SDS011;5038;53.064;8.624;2024-03-08T10:32:21;30.97;;;28.27;;
9997;SDS011;5038;53.064;8.624;2024-03-08T10:34:51;25.13;;;22.87;;
9997;SDS011;5038;53.064;8.624;2024-03-08T10:37:22;31.17;;;28.30;;
9997;SDS011;5038;53.064;8.624;2024-03-08T10:39:54;33.83;;;30.37;;
9997;SDS011;5038;53.064;8.624;2024-03-08T10:42:38;31.10;;;28.20;;
9997;SDS011;5038;53.064;8.624;2024-03-08T10:45:11;31.20;;;28.30;;
9997;SDS011;5038;53.064;8.624;2024-03-08T10:47:45;31.50;;;28.50;;
9997;SDS011;5038;53.064;8.624;2024-03-08T10:50:22;33.93;;;30.83;;
9997;SDS011;5038;53.064;8.624;2024-03-08T10:52:51;32.03;;;29.23;;
9997;SDS011;5038;53.064;8.624;2024-03-08T10:55:23;29.57;;;26.97;;
9997;SDS011;5038;53.064;8.624;2024-03-08T10:57:53;31.17;;;28.43;;
9997;SDS011;5038;53.064;8.624;2024-03-08T11:00:22;31.67;;;28.80;;
9997;SDS011;5038;53.064;8.624;2024-03-08T11:02:57;31.90;;;29.10;;
9997;SDS011;5038;53.064;8.624;2024-03-08T11:05:36;29.87;;;27.30;;
9997;SDS011;5038;53.064;8.624;2024-03-08T11:08:17;31.67;;;28.97;;
9997;SDS011;5038;53.064;8.624;2024-03-08T11:10:50;30.53;;;27.93;;
9997;SDS011;5038;53.064;8.624;2024-03-08T11:13:32;30.37;;;27.60;;
9997;SDS011;5038;53.064;8.624;2024-03-08T11:16:02;31.70;;;28.70;;
9997;SDS011;5038;53.064;8.624;2024-03-08T11:18:40;32.23;;;29.13;;
9997;SDS011;5038;53.064;8.624;2024-03-08T11:21:08;30.03;;;27.17;;
9997;SDS011;5038;53.064;8.624;2024-03-08T11:23:40;30.60;;;27.80;;
9997;SDS011;5038;53.064;8.624;2024-03-08T11:26:18;29.87;;;27.27;;
9997;SDS011;5038;53.064;8.624;2024-03-08T11:28:48;32.20;;;27.23;;
9997;SDS011;5038;53.064;8.624;2024-03-08T11:31:23;29.20;;;26.60;;
9997;SDS011;5038;53.064;8.624;2024-03-08T11:33:55;30.80;;;28.00;;
9997;SDS011;5038;53.064;8.624;2024-03-08T11:36:27;30.03;;;27.17;;
9997;SDS011;5038;53.064;8.624;2024-03-08T11:39:02;31.03;;;28.23;;
9997;SDS011;5038;53.064;8.624;2024-03-08T11:41:36;31.40;;;28.60;;
9997;SDS011;5038;53.064;8.624;2024-03-08T11:44:05;29.10;;;26.30;;
9997;SDS011;5038;53.064;8.624;2024-03-08T11:46:37;31.50;;;28.80;;
9997;SDS011;5038;53.064;8.624;2024-03-08T11:49:10;29.10;;;26.40;;
9997;SDS011;5038;53.064;8.624;2024-03-08T11:51:39;28.27;;;25.40;;
9997;SDS011;5038;53.064;8.624;2024-03-08T11:54:10;31.57;;;28.67;;
9997;SDS011;5038;53.064;8.624;2024-03-08T11:56:40;29.70;;;26.90;;
9997;SDS011;5038;53.064;8.624;2024-03-08T11:59:10;27.80;;;25.20;;
9997;SDS011;5038;53.064;8.624;2024-03-08T12:01:44;28.33;;;25.73;;
9997;SDS011;5038;53.064;8.624;2024-03-08T12:04:34;27.47;;;25.07;;
9997;SDS011;5038;53.064;8.624;2024-03-08T12:07:05;28.53;;;25.93;;
9997;SDS011;5038;53.064;8.624;2024-03-08T12:09:39;26.70;;;24.40;;
9997;SDS011;5038;53.064;8.624;2024-03-08T12:12:13;28.47;;;25.67;;
9997;SDS011;5038;53.064;8.624;2024-03-08T12:14:42;27.60;;;25.27;;
9997;SDS011;5038;53.064;8.624;2024-03-08T12:17:12;26.13;;;23.73;;
9997;SDS011;5038;53.064;8.624;2024-03-08T12:19:47;28.40;;;25.70;;
9997;SDS011;5038;53.064;8.624;2024-03-08T12:22:15;27.47;;;25.07;;
9997;SDS011;5038;53.064;8.624;2024-03-08T12:24:44;27.40;;;24.90;;
9997;SDS011;5038;53.064;8.624;2024-03-08T12:27:31;26.37;;;23.97;;
9997;SDS011;5038;53.064;8.624;2024-03-08T12:29:59;26.20;;;23.90;;
9997;SDS011;5038;53.064;8.624;2024-03-08T12:32:46;26.67;;;24.27;;
9997;SDS011;5038;53.064;8.624;2024-03-08T12:35:25;25.23;;;22.93;;
9997;SDS011;5038;53.064;8.624;2024-03-08T12:37:55;26.13;;;23.83;;
9997;SDS011;5038;53.064;8.624;2024-03-08T12:40:28;27.83;;;25.23;;
9997;SDS011;5038;53.064;8.624;2024-03-08T12:42:58;28.63;;;26.10;;
9997;SDS011;5038;53.064;8.624;2024-03-08T12:45:28;27.47;;;25.10;;
9997;SDS011;5038;53.064;8.624;2024-03-08T12:47:57;27.20;;;24.60;;
9997;SDS011;5038;53.064;8.624;2024-03-08T12:50:27;27.80;;;25.30;;
9997;SDS011;5038;53.064;8.624;2024-03-08T12:52:56;28.03;;;25.53;;
9997;SDS011;5038;53.064;8.624;2024-03-08T12:55:25;26.67;;;24.20;;
9997;SDS011;5038;53.064;8.624;2024-03-08T12:57:54;26.97;;;24.67;;
9997;SDS011;5038;53.064;8.624;2024-03-08T13:00:23;27.20;;;24.60;;
9997;SDS011;5038;53.064;8.624;2024-03-08T13:02:53;28.37;;;25.67;;
9997;SDS011;5038;53.064;8.624;2024-03-08T13:05:22;27.43;;;24.97;;
9997;SDS011;5038;53.064;8.624;2024-03-08T13:07:52;26.30;;;24.00;;
9997;SDS011;5038;53.064;8.624;2024-03-08T13:10:21;25.90;;;23.60;;
9997;SDS011;5038;53.064;8.624;2024-03-08T13:12:50;28.00;;;25.40;;
9997;SDS011;5038;53.064;8.624;2024-03-08T13:15:20;27.53;;;24.93;;
9997;SDS011;5038;53.064;8.624;2024-03-08T13:17:49;26.47;;;24.07;;
9997;SDS011;5038;53.064;8.624;2024-03-08T13:20:18;26.17;;;23.57;;
9997;SDS011;5038;53.064;8.624;2024-03-08T13:23:00;26.73;;;24.33;;
9997;SDS011;5038;53.064;8.624;2024-03-08T13:25:29;27.03;;;24.50;;
9997;SDS011;5038;53.064;8.624;2024-03-08T13:27:57;27.30;;;24.83;;
9997;SDS011;5038;53.064;8.624;2024-03-08T13:30:27;26.43;;;24.10;;
9997;SDS011;5038;53.064;8.624;2024-03-08T13:32:57;26.43;;;23.93;;
9997;SDS011;5038;53.064;8.624;2024-03-08T13:35:27;28.47;;;25.67;;
9997;SDS011;5038;53.064;8.624;2024-03-08T13:37:57;26.33;;;23.63;;
9997;SDS011;5038;53.064;8.624;2024-03-08T13:40:29;26.20;;;23.90;;
9997;SDS011;5038;53.064;8.624;2024-03-08T13:42:57;25.53;;;23.33;;
9997;SDS011;5038;53.064;8.624;2024-03-08T13:45:28;25.60;;;23.30;;
9997;SDS011;5038;53.064;8.624;2024-03-08T13:47:56;26.10;;;23.80;;
9997;SDS011;5038;53.064;8.624;2024-03-08T13:50:25;27.57;;;25.17;;
9997;SDS011;5038;53.064;8.624;2024-03-08T13:52:55;26.30;;;23.90;;
9997;SDS011;5038;53.064;8.624;2024-03-08T13:55:24;28.90;;;26.40;;
9997;SDS011;5038;53.064;8.624;2024-03-08T13:57:55;27.83;;;25.37;;
9997;SDS011;5038;53.064;8.624;2024-03-08T14:00:26;29.73;;;26.93;;
9997;SDS011;5038;53.064;8.624;2024-03-08T14:03:01;26.77;;;24.37;;
9997;SDS011;5038;53.064;8.624;2024-03-08T14:05:32;28.57;;;25.87;;
9997;SDS011;5038;53.064;8.624;2024-03-08T14:08:02;26.97;;;24.37;;
9997;SDS011;5038;53.064;8.624;2024-03-08T14:10:31;27.10;;;24.50;;
9997;SDS011;5038;53.064;8.624;2024-03-08T14:13:02;25.43;;;23.00;;
9997;SDS011;5038;53.064;8.624;2024-03-08T14:15:31;28.40;;;25.63;;
9997;SDS011;5038;53.064;8.624;2024-03-08T14:18:00;26.37;;;23.87;;
9997;SDS011;5038;53.064;8.624;2024-03-08T14:20:29;26.00;;;23.60;;
9997;SDS011;5038;53.064;8.624;2024-03-08T14:22:57;27.43;;;24.70;;
9997;SDS011;5038;53.064;8.624;2024-03-08T14:25:27;27.60;;;25.00;;
9997;SDS011;5038;53.064;8.624;2024-03-08T14:27:56;27.33;;;24.93;;
9997;SDS011;5038;53.064;8.624;2024-03-08T14:30:30;26.67;;;24.27;;
9997;SDS011;5038;53.064;8.624;2024-03-08T14:33:05;26.47;;;24.23;;
9997;SDS011;5038;53.064;8.624;2024-03-08T14:35:36;26.10;;;23.60;;
9997;SDS011;5038;53.064;8.624;2024-03-08T14:38:05;26.13;;;23.70;;
9997;SDS011;5038;53.064;8.624;2024-03-08T14:40:35;25.20;;;22.70;;
9997;SDS011;5038;53.064;8.624;2024-03-08T14:43:04;25.83;;;23.40;;
9997;SDS011;5038;53.064;8.624;2024-03-08T14:45:35;25.07;;;22.87;;
9997;SDS011;5038;53.064;8.624;2024-03-08T14:48:07;24.53;;;22.20;;
9997;SDS011;5038;53.064;8.624;2024-03-08T14:50:38;25.67;;;23.43;;
9997;SDS011;5038;53.064;8.624;2024-03-08T14:53:07;25.77;;;23.50;;
9997;SDS011;5038;53.064;8.624;2024-03-08T14:55:35;25.30;;;22.90;;
9997;SDS011;5038;53.064;8.624;2024-03-08T14:58:04;26.10;;;23.67;;
9997;SDS011;5038;53.064;8.624;2024-03-08T15:00:32;25.80;;;23.43;;
9997;SDS011;5038;53.064;8.624;2024-03-08T15:03:03;26.87;;;24.37;;
9997;SDS011;5038;53.064;8.624;2024-03-08T15:05:33;24.70;;;22.60;;